sensor_id;sensor_type;location;lat;lon;timestamp;P1;durP1;ratioP1;P2;durP2;ratioP2
7613;SDS011;3848;42.016;23.098;2022-07-29T00:00:13;11.07;;;8.10;;
7613;SDS011;3848;42.016;23.098;2022-07-29T00:02:40;9.50;;;8.07;;
7613;SDS011;3848;42.016;23.098;2022-07-29T00:05:09;10.00;;;7.53;;
7613;SDS011;3848;42.016;23.098;2022-07-29T00:07:38;11.37;;;8.20;;
7613;SDS011;3848;42.016;23.098;2022-07-29T00:10:05;12.53;;;8.83;;
7613;SDS011;3848;42.016;23.098;2022-07-29T00:12:32;16.90;;;7.57;;
7613;SDS011;3848;42.016;23.098;2022-07-29T00:14:59;8.43;;;6.77;;
7613;SDS011;3848;42.016;23.098;2022-07-29T00:17:26;12.20;;;7.70;;
7613;SDS011;3848;42.016;23.098;2022-07-29T00:19:53;9.33;;;6.97;;
7613;SDS011;3848;42.016;23.098;2022-07-29T00:22:21;11.10;;;7.70;;
7613;SDS011;3848;42.016;23.098;2022-07-29T00:24:49;12.77;;;6.53;;
7613;SDS011;3848;42.016;23.098;2022-07-29T00:27:16;8.30;;;6.60;;
7613;SDS011;3848;42.016;23.098;2022-07-29T00:29:43;8.57;;;6.47;;
7613;SDS011;3848;42.016;23.098;2022-07-29T00:32:11;10.37;;;6.73;;
7613;SDS011;3848;42.016;23.098;2022-07-29T00:34:38;18.27;;;6.90;;
7613;SDS011;3848;42.016;23.098;2022-07-29T00:37:24;8.90;;;6.80;;
7613;SDS011;3848;42.016;23.098;2022-07-29T00:39:51;12.50;;;6.43;;
7613;SDS011;3848;42.016;23.098;2022-07-29T00:42:18;9.03;;;6.30;;
7613;SDS011;3848;42.016;23.098;2022-07-29T00:44:45;11.70;;;6.33;;
7613;SDS011;3848;42.016;23.098;2022-07-29T00:47:11;8.80;;;6.23;;
7613;SDS011;3848;42.016;23.098;2022-07-29T00:49:39;10.50;;;6.67;;
7613;SDS011;3848;42.016;23.098;2022-07-29T00:52:07;7.90;;;5.83;;
7613;SDS011;3848;42.016;23.098;2022-07-29T00:54:36;7.70;;;5.43;;
7613;SDS011;3848;42.016;23.098;2022-07-29T00:57:05;8.40;;;5.57;;
7613;SDS011;3848;42.016;23.098;2022-07-29T00:59:33;9.20;;;5.40;;
7613;SDS011;3848;42.016;23.098;2022-07-29T01:02:01;11.07;;;5.50;;
7613;SDS011;3848;42.016;23.098;2022-07-29T01:04:28;11.37;;;5.20;;
7613;SDS011;3848;42.016;23.098;2022-07-29T01:06:56;6.40;;;5.80;;
7613;SDS011;3848;42.016;23.098;2022-07-29T01:09:24;9.83;;;5.97;;
7613;SDS011;3848;42.016;23.098;2022-07-29T01:11:52;7.43;;;5.50;;
7613;SDS011;3848;42.016;23.098;2022-07-29T01:14:19;14.37;;;6.57;;
7613;SDS011;3848;42.016;23.098;2022-07-29T01:16:50;7.07;;;5.83;;
7613;SDS011;3848;42.016;23.098;2022-07-29T01:19:32;12.43;;;7.00;;
7613;SDS011;3848;42.016;23.098;2022-07-29T01:22:15;9.70;;;6.07;;
7613;SDS011;3848;42.016;23.098;2022-07-29T01:24:58;10.47;;;6.73;;
7613;SDS011;3848;42.016;23.098;2022-07-29T01:27:41;6.87;;;6.17;;
7613;SDS011;3848;42.016;23.098;2022-07-29T01:30:19;7.70;;;6.10;;
7613;SDS011;3848;42.016;23.098;2022-07-29T01:32:49;8.10;;;5.97;;
7613;SDS011;3848;42.016;23.098;2022-07-29T01:35:19;6.93;;;5.47;;
7613;SDS011;3848;42.016;23.098;2022-07-29T01:37:50;6.47;;;5.67;;
7613;SDS011;3848;42.016;23.098;2022-07-29T01:40:24;8.20;;;5.87;;
7613;SDS011;3848;42.016;23.098;2022-07-29T01:42:56;10.87;;;5.73;;
7613;SDS011;3848;42.016;23.098;2022-07-29T01:45:26;13.33;;;5.60;;
7613;SDS011;3848;42.016;23.098;2022-07-29T01:48:02;11.17;;;6.37;;
7613;SDS011;3848;42.016;23.098;2022-07-29T01:50:32;9.87;;;6.40;;
7613;SDS011;3848;42.016;23.098;2022-07-29T01:53:02;9.23;;;6.63;;
7613;SDS011;3848;42.016;23.098;2022-07-29T01:55:32;6.97;;;5.30;;
7613;SDS011;3848;42.016;23.098;2022-07-29T01:58:03;8.43;;;5.53;;
7613;SDS011;3848;42.016;23.098;2022-07-29T02:00:33;13.53;;;6.17;;
7613;SDS011;3848;42.016;23.098;2022-07-29T02:03:02;9.50;;;6.50;;
7613;SDS011;3848;42.016;23.098;2022-07-29T02:05:33;8.77;;;6.30;;
7613;SDS011;3848;42.016;23.098;2022-07-29T02:08:03;7.17;;;6.23;;
7613;SDS011;3848;42.016;23.098;2022-07-29T02:10:34;7.33;;;6.33;;
7613;SDS011;3848;42.016;23.098;2022-07-29T02:13:04;15.17;;;5.83;;
7613;SDS011;3848;42.016;23.098;2022-07-29T02:15:34;8.13;;;5.67;;
7613;SDS011;3848;42.016;23.098;2022-07-29T02:18:04;8.50;;;6.17;;
7613;SDS011;3848;42.016;23.098;2022-07-29T02:20:34;8.73;;;6.20;;
7613;SDS011;3848;42.016;23.098;2022-07-29T02:23:02;9.90;;;5.90;;
7613;SDS011;3848;42.016;23.098;2022-07-29T02:25:30;8.43;;;6.50;;
7613;SDS011;3848;42.016;23.098;2022-07-29T02:27:58;9.17;;;5.63;;
7613;SDS011;3848;42.016;23.098;2022-07-29T02:30:26;10.83;;;7.10;;
7613;SDS011;3848;42.016;23.098;2022-07-29T02:32:56;19.13;;;6.87;;
7613;SDS011;3848;42.016;23.098;2022-07-29T02:35:25;9.73;;;6.83;;
7613;SDS011;3848;42.016;23.098;2022-07-29T02:37:53;13.97;;;6.23;;
7613;SDS011;3848;42.016;23.098;2022-07-29T02:40:38;8.67;;;5.70;;
7613;SDS011;3848;42.016;23.098;2022-07-29T02:43:08;6.67;;;5.93;;
7613;SDS011;3848;42.016;23.098;2022-07-29T02:45:36;12.90;;;5.77;;
7613;SDS011;3848;42.016;23.098;2022-07-29T02:48:06;8.87;;;5.97;;
7613;SDS011;3848;42.016;23.098;2022-07-29T02:50:40;9.80;;;6.23;;
7613;SDS011;3848;42.016;23.098;2022-07-29T02:53:12;11.53;;;5.77;;
7613;SDS011;3848;42.016;23.098;2022-07-29T02:55:43;7.57;;;6.30;;
7613;SDS011;3848;42.016;23.098;2022-07-29T02:58:15;8.53;;;6.40;;
7613;SDS011;3848;42.016;23.098;2022-07-29T03:00:53;8.40;;;6.30;;
7613;SDS011;3848;42.016;23.098;2022-07-29T03:03:25;14.93;;;6.43;;
7613;SDS011;3848;42.016;23.098;2022-07-29T03:05:55;9.13;;;6.00;;
7613;SDS011;3848;42.016;23.098;2022-07-29T03:08:24;21.57;;;6.30;;
7613;SDS011;3848;42.016;23.098;2022-07-29T03:10:52;10.20;;;6.93;;
7613;SDS011;3848;42.016;23.098;2022-07-29T03:13:20;10.10;;;6.43;;
7613;SDS011;3848;42.016;23.098;2022-07-29T03:15:48;7.40;;;6.60;;
7613;SDS011;3848;42.016;23.098;2022-07-29T03:18:15;12.57;;;6.57;;
7613;SDS011;3848;42.016;23.098;2022-07-29T03:20:45;10.20;;;7.00;;
7613;SDS011;3848;42.016;23.098;2022-07-29T03:23:12;7.87;;;6.03;;
7613;SDS011;3848;42.016;23.098;2022-07-29T03:25:45;12.93;;;6.20;;
7613;SDS011;3848;42.016;23.098;2022-07-29T03:28:12;12.07;;;6.50;;
7613;SDS011;3848;42.016;23.098;2022-07-29T03:30:38;10.57;;;6.37;;
7613;SDS011;3848;42.016;23.098;2022-07-29T03:33:05;10.33;;;6.60;;
7613;SDS011;3848;42.016;23.098;2022-07-29T03:35:32;13.30;;;7.30;;
7613;SDS011;3848;42.016;23.098;2022-07-29T03:38:00;13.73;;;6.77;;
7613;SDS011;3848;42.016;23.098;2022-07-29T03:40:30;8.53;;;6.73;;
7613;SDS011;3848;42.016;23.098;2022-07-29T03:43:00;9.43;;;6.27;;
7613;SDS011;3848;42.016;23.098;2022-07-29T03:45:28;11.40;;;7.00;;
7613;SDS011;3848;42.016;23.098;2022-07-29T03:47:59;14.37;;;7.73;;
7613;SDS011;3848;42.016;23.098;2022-07-29T03:50:31;9.93;;;7.20;;
7613;SDS011;3848;42.016;23.098;2022-07-29T03:53:02;9.07;;;6.80;;
7613;SDS011;3848;42.016;23.098;2022-07-29T03:55:30;9.23;;;7.57;;
7613;SDS011;3848;42.016;23.098;2022-07-29T03:58:03;13.73;;;6.83;;
7613;SDS011;3848;42.016;23.098;2022-07-29T04:00:31;10.00;;;7.33;;
7613;SDS011;3848;42.016;23.098;2022-07-29T04:02:59;13.27;;;6.87;;
7613;SDS011;3848;42.016;23.098;2022-07-29T04:05:26;9.77;;;7.30;;
7613;SDS011;3848;42.016;23.098;2022-07-29T04:07:53;10.50;;;7.50;;
7613;SDS011;3848;42.016;23.098;2022-07-29T04:10:21;13.33;;;7.20;;
7613;SDS011;3848;42.016;23.098;2022-07-29T04:12:49;10.43;;;7.10;;
7613;SDS011;3848;42.016;23.098;2022-07-29T04:15:16;10.07;;;7.90;;
7613;SDS011;3848;42.016;23.098;2022-07-29T04:17:43;13.73;;;7.53;;
7613;SDS011;3848;42.016;23.098;2022-07-29T04:20:10;9.27;;;7.97;;
7613;SDS011;3848;42.016;23.098;2022-07-29T04:22:38;16.00;;;8.10;;
7613;SDS011;3848;42.016;23.098;2022-07-29T04:25:05;19.13;;;8.77;;
7613;SDS011;3848;42.016;23.098;2022-07-29T04:27:34;14.00;;;8.67;;
7613;SDS011;3848;42.016;23.098;2022-07-29T04:30:21;15.63;;;8.37;;
7613;SDS011;3848;42.016;23.098;2022-07-29T04:32:48;13.80;;;7.97;;
7613;SDS011;3848;42.016;23.098;2022-07-29T04:35:15;17.33;;;9.10;;
7613;SDS011;3848;42.016;23.098;2022-07-29T04:37:41;12.57;;;7.80;;
7613;SDS011;3848;42.016;23.098;2022-07-29T04:40:08;13.73;;;8.30;;
7613;SDS011;3848;42.016;23.098;2022-07-29T04:42:38;15.50;;;7.83;;
7613;SDS011;3848;42.016;23.098;2022-07-29T04:45:05;13.50;;;8.80;;
7613;SDS011;3848;42.016;23.098;2022-07-29T04:47:32;18.80;;;9.67;;
7613;SDS011;3848;42.016;23.098;2022-07-29T04:49:59;13.27;;;9.63;;
7613;SDS011;3848;42.016;23.098;2022-07-29T04:52:27;13.57;;;10.07;;
7613;SDS011;3848;42.016;23.098;2022-07-29T04:54:54;19.03;;;10.00;;
7613;SDS011;3848;42.016;23.098;2022-07-29T04:57:20;14.73;;;9.67;;
7613;SDS011;3848;42.016;23.098;2022-07-29T04:59:49;18.30;;;11.90;;
7613;SDS011;3848;42.016;23.098;2022-07-29T05:02:15;17.60;;;11.43;;
7613;SDS011;3848;42.016;23.098;2022-07-29T05:04:42;20.17;;;13.17;;
7613;SDS011;3848;42.016;23.098;2022-07-29T05:07:10;22.93;;;12.43;;
7613;SDS011;3848;42.016;23.098;2022-07-29T05:09:37;19.57;;;12.97;;
7613;SDS011;3848;42.016;23.098;2022-07-29T05:12:04;23.27;;;13.00;;
7613;SDS011;3848;42.016;23.098;2022-07-29T05:14:32;27.13;;;15.63;;
7613;SDS011;3848;42.016;23.098;2022-07-29T05:17:00;26.30;;;16.20;;
7613;SDS011;3848;42.016;23.098;2022-07-29T05:19:27;28.43;;;18.83;;
7613;SDS011;3848;42.016;23.098;2022-07-29T05:21:54;25.10;;;16.83;;
7613;SDS011;3848;42.016;23.098;2022-07-29T05:24:21;34.00;;;19.10;;
7613;SDS011;3848;42.016;23.098;2022-07-29T05:26:48;31.87;;;18.40;;
7613;SDS011;3848;42.016;23.098;2022-07-29T05:29:15;29.93;;;20.07;;
7613;SDS011;3848;42.016;23.098;2022-07-29T05:31:42;31.30;;;18.40;;
7613;SDS011;3848;42.016;23.098;2022-07-29T05:34:10;27.17;;;19.30;;
7613;SDS011;3848;42.016;23.098;2022-07-29T05:36:37;27.57;;;18.43;;
7613;SDS011;3848;42.016;23.098;2022-07-29T05:39:03;30.00;;;18.37;;
7613;SDS011;3848;42.016;23.098;2022-07-29T05:41:31;23.77;;;16.87;;
7613;SDS011;3848;42.016;23.098;2022-07-29T05:43:58;32.93;;;17.00;;
7613;SDS011;3848;42.016;23.098;2022-07-29T05:46:25;30.00;;;17.77;;
7613;SDS011;3848;42.016;23.098;2022-07-29T05:48:51;27.77;;;17.83;;
7613;SDS011;3848;42.016;23.098;2022-07-29T05:51:20;26.30;;;17.67;;
7613;SDS011;3848;42.016;23.098;2022-07-29T05:53:47;34.23;;;19.33;;
7613;SDS011;3848;42.016;23.098;2022-07-29T05:56:14;23.17;;;16.60;;
7613;SDS011;3848;42.016;23.098;2022-07-29T05:58:40;25.00;;;16.57;;
7613;SDS011;3848;42.016;23.098;2022-07-29T06:01:07;54.63;;;19.23;;
7613;SDS011;3848;42.016;23.098;2022-07-29T06:03:34;21.30;;;16.63;;
7613;SDS011;3848;42.016;23.098;2022-07-29T06:06:02;23.97;;;17.23;;
7613;SDS011;3848;42.016;23.098;2022-07-29T06:08:32;23.00;;;16.33;;
7613;SDS011;3848;42.016;23.098;2022-07-29T06:10:59;19.13;;;15.03;;
7613;SDS011;3848;42.016;23.098;2022-07-29T06:13:27;20.43;;;14.83;;
7613;SDS011;3848;42.016;23.098;2022-07-29T06:15:53;19.73;;;15.03;;
7613;SDS011;3848;42.016;23.098;2022-07-29T06:18:20;24.97;;;16.37;;
7613;SDS011;3848;42.016;23.098;2022-07-29T06:20:49;24.27;;;16.37;;
7613;SDS011;3848;42.016;23.098;2022-07-29T06:23:16;24.97;;;16.90;;
7613;SDS011;3848;42.016;23.098;2022-07-29T06:25:44;22.53;;;16.27;;
7613;SDS011;3848;42.016;23.098;2022-07-29T06:28:11;22.40;;;16.13;;
7613;SDS011;3848;42.016;23.098;2022-07-29T06:30:39;22.27;;;15.00;;
7613;SDS011;3848;42.016;23.098;2022-07-29T06:33:06;24.00;;;15.43;;
7613;SDS011;3848;42.016;23.098;2022-07-29T06:35:33;23.57;;;16.00;;
7613;SDS011;3848;42.016;23.098;2022-07-29T06:38:02;21.37;;;14.93;;
7613;SDS011;3848;42.016;23.098;2022-07-29T06:40:29;22.33;;;14.80;;
7613;SDS011;3848;42.016;23.098;2022-07-29T06:43:15;20.67;;;15.47;;
7613;SDS011;3848;42.016;23.098;2022-07-29T06:45:42;21.80;;;15.90;;
7613;SDS011;3848;42.016;23.098;2022-07-29T06:48:09;20.03;;;16.53;;
7613;SDS011;3848;42.016;23.098;2022-07-29T06:50:36;20.13;;;15.47;;
7613;SDS011;3848;42.016;23.098;2022-07-29T06:53:04;24.80;;;16.03;;
7613;SDS011;3848;42.016;23.098;2022-07-29T06:55:31;23.03;;;17.70;;
7613;SDS011;3848;42.016;23.098;2022-07-29T06:57:58;25.70;;;17.20;;
7613;SDS011;3848;42.016;23.098;2022-07-29T07:00:26;26.10;;;18.93;;
7613;SDS011;3848;42.016;23.098;2022-07-29T07:02:53;24.07;;;17.43;;
7613;SDS011;3848;42.016;23.098;2022-07-29T07:05:20;28.93;;;18.27;;
7613;SDS011;3848;42.016;23.098;2022-07-29T07:07:47;33.07;;;17.30;;
7613;SDS011;3848;42.016;23.098;2022-07-29T07:10:14;24.50;;;17.27;;
7613;SDS011;3848;42.016;23.098;2022-07-29T07:12:41;24.33;;;16.00;;
7613;SDS011;3848;42.016;23.098;2022-07-29T07:15:08;27.73;;;17.93;;
7613;SDS011;3848;42.016;23.098;2022-07-29T07:17:37;26.37;;;17.00;;
7613;SDS011;3848;42.016;23.098;2022-07-29T07:20:04;22.23;;;16.77;;
7613;SDS011;3848;42.016;23.098;2022-07-29T07:22:32;23.00;;;16.23;;
7613;SDS011;3848;42.016;23.098;2022-07-29T07:24:58;23.87;;;16.67;;
7613;SDS011;3848;42.016;23.098;2022-07-29T07:27:25;24.93;;;17.20;;
7613;SDS011;3848;42.016;23.098;2022-07-29T07:29:52;22.43;;;15.83;;
7613;SDS011;3848;42.016;23.098;2022-07-29T07:32:19;23.03;;;16.93;;
7613;SDS011;3848;42.016;23.098;2022-07-29T07:34:48;22.80;;;16.50;;
7613;SDS011;3848;42.016;23.098;2022-07-29T07:37:15;26.23;;;16.53;;
7613;SDS011;3848;42.016;23.098;2022-07-29T07:39:44;30.27;;;21.37;;
7613;SDS011;3848;42.016;23.098;2022-07-29T07:42:11;23.83;;;16.73;;
7613;SDS011;3848;42.016;23.098;2022-07-29T07:44:38;27.33;;;16.77;;
7613;SDS011;3848;42.016;23.098;2022-07-29T07:47:05;26.23;;;18.00;;
7613;SDS011;3848;42.016;23.098;2022-07-29T07:49:32;28.67;;;17.23;;
7613;SDS011;3848;42.016;23.098;2022-07-29T07:52:00;26.27;;;18.17;;
7613;SDS011;3848;42.016;23.098;2022-07-29T07:54:27;28.63;;;17.67;;
7613;SDS011;3848;42.016;23.098;2022-07-29T07:56:53;24.83;;;17.73;;
7613;SDS011;3848;42.016;23.098;2022-07-29T07:59:20;17.67;;;15.43;;
7613;SDS011;3848;42.016;23.098;2022-07-29T08:01:47;22.27;;;16.60;;
7613;SDS011;3848;42.016;23.098;2022-07-29T08:04:14;24.23;;;16.43;;
7613;SDS011;3848;42.016;23.098;2022-07-29T08:06:41;22.60;;;16.37;;
7613;SDS011;3848;42.016;23.098;2022-07-29T08:09:09;25.80;;;15.83;;
7613;SDS011;3848;42.016;23.098;2022-07-29T08:11:36;25.97;;;16.03;;
7613;SDS011;3848;42.016;23.098;2022-07-29T08:14:03;23.90;;;15.73;;
7613;SDS011;3848;42.016;23.098;2022-07-29T08:16:30;25.97;;;16.97;;
7613;SDS011;3848;42.016;23.098;2022-07-29T08:18:56;20.40;;;14.83;;
7613;SDS011;3848;42.016;23.098;2022-07-29T08:21:23;31.97;;;16.57;;
7613;SDS011;3848;42.016;23.098;2022-07-29T08:23:51;21.27;;;16.57;;
7613;SDS011;3848;42.016;23.098;2022-07-29T08:26:40;20.80;;;15.20;;
7613;SDS011;3848;42.016;23.098;2022-07-29T08:29:07;26.60;;;17.73;;
7613;SDS011;3848;42.016;23.098;2022-07-29T08:31:34;20.77;;;16.27;;
7613;SDS011;3848;42.016;23.098;2022-07-29T08:34:01;25.07;;;17.07;;
7613;SDS011;3848;42.016;23.098;2022-07-29T08:36:29;26.33;;;16.53;;
7613;SDS011;3848;42.016;23.098;2022-07-29T08:38:56;20.10;;;15.23;;
7613;SDS011;3848;42.016;23.098;2022-07-29T08:41:23;27.40;;;15.27;;
7613;SDS011;3848;42.016;23.098;2022-07-29T08:43:52;20.77;;;14.57;;
7613;SDS011;3848;42.016;23.098;2022-07-29T08:46:19;20.80;;;15.03;;
7613;SDS011;3848;42.016;23.098;2022-07-29T08:48:47;22.00;;;15.10;;
7613;SDS011;3848;42.016;23.098;2022-07-29T08:51:16;15.63;;;12.37;;
7613;SDS011;3848;42.016;23.098;2022-07-29T08:53:44;18.70;;;13.30;;
7613;SDS011;3848;42.016;23.098;2022-07-29T08:56:14;20.80;;;13.53;;
7613;SDS011;3848;42.016;23.098;2022-07-29T08:58:41;19.53;;;13.63;;
7613;SDS011;3848;42.016;23.098;2022-07-29T09:01:10;17.63;;;13.93;;
7613;SDS011;3848;42.016;23.098;2022-07-29T09:03:38;21.80;;;14.63;;
7613;SDS011;3848;42.016;23.098;2022-07-29T09:06:06;17.93;;;14.20;;
7613;SDS011;3848;42.016;23.098;2022-07-29T09:08:34;16.10;;;11.73;;
7613;SDS011;3848;42.016;23.098;2022-07-29T09:11:01;16.40;;;12.53;;
7613;SDS011;3848;42.016;23.098;2022-07-29T09:13:28;18.47;;;14.07;;
7613;SDS011;3848;42.016;23.098;2022-07-29T09:15:55;14.93;;;11.63;;
7613;SDS011;3848;42.016;23.098;2022-07-29T09:21:08;19.43;;;12.03;;
7613;SDS011;3848;42.016;23.098;2022-07-29T09:24:01;16.20;;;12.90;;
7613;SDS011;3848;42.016;23.098;2022-07-29T09:26:32;19.13;;;13.97;;
7613;SDS011;3848;42.016;23.098;2022-07-29T09:29:01;19.60;;;12.40;;
7613;SDS011;3848;42.016;23.098;2022-07-29T09:31:35;20.60;;;11.43;;
7613;SDS011;3848;42.016;23.098;2022-07-29T09:34:05;19.80;;;12.90;;
7613;SDS011;3848;42.016;23.098;2022-07-29T09:36:38;17.53;;;12.27;;
7613;SDS011;3848;42.016;23.098;2022-07-29T09:39:05;18.13;;;10.77;;
7613;SDS011;3848;42.016;23.098;2022-07-29T09:41:43;17.17;;;12.00;;
7613;SDS011;3848;42.016;23.098;2022-07-29T09:44:12;15.03;;;10.37;;
7613;SDS011;3848;42.016;23.098;2022-07-29T09:46:40;18.47;;;11.53;;
7613;SDS011;3848;42.016;23.098;2022-07-29T09:49:19;14.70;;;12.00;;
7613;SDS011;3848;42.016;23.098;2022-07-29T09:51:46;18.67;;;11.80;;
7613;SDS011;3848;42.016;23.098;2022-07-29T09:54:22;15.07;;;11.83;;
7613;SDS011;3848;42.016;23.098;2022-07-29T09:56:50;21.77;;;11.43;;
7613;SDS011;3848;42.016;23.098;2022-07-29T09:59:18;19.37;;;12.27;;
7613;SDS011;3848;42.016;23.098;2022-07-29T10:01:48;16.03;;;12.40;;
7613;SDS011;3848;42.016;23.098;2022-07-29T10:04:15;19.13;;;13.00;;
7613;SDS011;3848;42.016;23.098;2022-07-29T10:06:56;13.93;;;10.97;;
7613;SDS011;3848;42.016;23.098;2022-07-29T10:09:24;16.37;;;12.07;;
7613;SDS011;3848;42.016;23.098;2022-07-29T10:12:04;17.70;;;12.40;;
7613;SDS011;3848;42.016;23.098;2022-07-29T10:14:33;15.97;;;11.50;;
7613;SDS011;3848;42.016;23.098;2022-07-29T10:17:00;13.03;;;9.67;;
7613;SDS011;3848;42.016;23.098;2022-07-29T10:19:28;11.87;;;10.03;;
7613;SDS011;3848;42.016;23.098;2022-07-29T10:21:58;17.83;;;9.70;;
7613;SDS011;3848;42.016;23.098;2022-07-29T10:24:26;12.70;;;8.80;;
7613;SDS011;3848;42.016;23.098;2022-07-29T10:26:53;14.27;;;8.80;;
7613;SDS011;3848;42.016;23.098;2022-07-29T10:29:21;15.47;;;9.53;;
7613;SDS011;3848;42.016;23.098;2022-07-29T10:31:49;12.73;;;10.20;;
7613;SDS011;3848;42.016;23.098;2022-07-29T10:34:28;11.67;;;10.17;;
7613;SDS011;3848;42.016;23.098;2022-07-29T10:37:03;12.13;;;10.67;;
7613;SDS011;3848;42.016;23.098;2022-07-29T10:39:41;10.47;;;8.80;;
7613;SDS011;3848;42.016;23.098;2022-07-29T10:42:18;11.03;;;9.50;;
7613;SDS011;3848;42.016;23.098;2022-07-29T10:44:49;12.35;;;9.20;;
7613;SDS011;3848;42.016;23.098;2022-07-29T10:47:21;11.35;;;9.45;;
7613;SDS011;3848;42.016;23.098;2022-07-29T10:49:56;15.48;;;10.57;;
7613;SDS011;3848;42.016;23.098;2022-07-29T10:52:25;13.55;;;11.18;;
7613;SDS011;3848;42.016;23.098;2022-07-29T10:55:34;12.50;;;10.75;;
7613;SDS011;3848;42.016;23.098;2022-07-29T10:58:14;13.00;;;10.18;;
7613;SDS011;3848;42.016;23.098;2022-07-29T11:00:42;15.75;;;10.90;;
7613;SDS011;3848;42.016;23.098;2022-07-29T11:03:10;15.15;;;10.10;;
7613;SDS011;3848;42.016;23.098;2022-07-29T11:06:08;12.98;;;10.02;;
7613;SDS011;3848;42.016;23.098;2022-07-29T11:08:37;19.02;;;12.00;;
7613;SDS011;3848;42.016;23.098;2022-07-29T11:14:01;12.80;;;10.75;;
7613;SDS011;3848;42.016;23.098;2022-07-29T11:16:57;11.65;;;10.23;;
7613;SDS011;3848;42.016;23.098;2022-07-29T11:19:27;16.05;;;11.23;;
7613;SDS011;3848;42.016;23.098;2022-07-29T11:21:54;16.05;;;11.35;;
7613;SDS011;3848;42.016;23.098;2022-07-29T11:24:23;16.83;;;11.13;;
7613;SDS011;3848;42.016;23.098;2022-07-29T11:27:05;17.45;;;9.23;;
7613;SDS011;3848;42.016;23.098;2022-07-29T11:29:34;11.77;;;8.68;;
7613;SDS011;3848;42.016;23.098;2022-07-29T11:32:11;11.77;;;8.70;;
7613;SDS011;3848;42.016;23.098;2022-07-29T11:34:41;13.88;;;9.55;;
7613;SDS011;3848;42.016;23.098;2022-07-29T11:40:09;10.95;;;9.73;;
7613;SDS011;3848;42.016;23.098;2022-07-29T11:42:44;10.07;;;9.07;;
7613;SDS011;3848;42.016;23.098;2022-07-29T11:48:17;12.48;;;9.80;;
7613;SDS011;3848;42.016;23.098;2022-07-29T11:50:44;10.75;;;9.15;;
7613;SDS011;3848;42.016;23.098;2022-07-29T11:53:12;11.43;;;9.90;;
7613;SDS011;3848;42.016;23.098;2022-07-29T11:55:40;12.13;;;9.48;;
7613;SDS011;3848;42.016;23.098;2022-07-29T11:58:08;14.43;;;9.10;;
7613;SDS011;3848;42.016;23.098;2022-07-29T12:00:35;15.82;;;10.10;;
7613;SDS011;3848;42.016;23.098;2022-07-29T12:03:04;15.43;;;10.13;;
7613;SDS011;3848;42.016;23.098;2022-07-29T12:05:34;13.18;;;8.35;;
7613;SDS011;3848;42.016;23.098;2022-07-29T12:08:04;10.95;;;8.73;;
7613;SDS011;3848;42.016;23.098;2022-07-29T12:10:35;14.20;;;9.40;;
7613;SDS011;3848;42.016;23.098;2022-07-29T12:13:04;11.55;;;7.97;;
7613;SDS011;3848;42.016;23.098;2022-07-29T12:15:31;11.80;;;8.75;;
7613;SDS011;3848;42.016;23.098;2022-07-29T12:17:58;9.98;;;8.65;;
7613;SDS011;3848;42.016;23.098;2022-07-29T12:20:35;8.35;;;7.55;;
7613;SDS011;3848;42.016;23.098;2022-07-29T12:23:04;10.43;;;7.75;;
7613;SDS011;3848;42.016;23.098;2022-07-29T12:25:33;12.10;;;8.35;;
7613;SDS011;3848;42.016;23.098;2022-07-29T12:28:04;12.73;;;8.25;;
7613;SDS011;3848;42.016;23.098;2022-07-29T12:30:36;9.00;;;8.10;;
7613;SDS011;3848;42.016;23.098;2022-07-29T12:33:16;9.85;;;7.78;;
7613;SDS011;3848;42.016;23.098;2022-07-29T12:35:45;9.18;;;8.23;;
7613;SDS011;3848;42.016;23.098;2022-07-29T12:38:15;8.57;;;7.63;;
7613;SDS011;3848;42.016;23.098;2022-07-29T12:40:43;9.20;;;8.30;;
7613;SDS011;3848;42.016;23.098;2022-07-29T12:43:14;9.73;;;8.23;;
7613;SDS011;3848;42.016;23.098;2022-07-29T12:45:43;9.32;;;8.27;;
7613;SDS011;3848;42.016;23.098;2022-07-29T12:48:11;9.13;;;8.23;;
7613;SDS011;3848;42.016;23.098;2022-07-29T12:50:52;9.13;;;8.32;;
7613;SDS011;3848;42.016;23.098;2022-07-29T12:53:20;8.75;;;7.85;;
7613;SDS011;3848;42.016;23.098;2022-07-29T12:55:48;9.90;;;8.52;;
7613;SDS011;3848;42.016;23.098;2022-07-29T12:58:28;10.38;;;8.52;;
7613;SDS011;3848;42.016;23.098;2022-07-29T13:01:00;10.15;;;8.45;;
7613;SDS011;3848;42.016;23.098;2022-07-29T13:03:47;11.88;;;8.80;;
7613;SDS011;3848;42.016;23.098;2022-07-29T13:06:33;9.13;;;8.00;;
7613;SDS011;3848;42.016;23.098;2022-07-29T13:09:04;11.32;;;8.43;;
7613;SDS011;3848;42.016;23.098;2022-07-29T13:11:37;10.32;;;8.40;;
7613;SDS011;3848;42.016;23.098;2022-07-29T13:14:07;9.98;;;8.52;;
7613;SDS011;3848;42.016;23.098;2022-07-29T13:16:35;9.77;;;8.23;;
7613;SDS011;3848;42.016;23.098;2022-07-29T13:19:07;10.70;;;8.18;;
7613;SDS011;3848;42.016;23.098;2022-07-29T13:21:36;9.77;;;8.23;;
7613;SDS011;3848;42.016;23.098;2022-07-29T13:24:04;9.18;;;8.30;;
7613;SDS011;3848;42.016;23.098;2022-07-29T13:26:32;12.45;;;7.80;;
7613;SDS011;3848;42.016;23.098;2022-07-29T13:29:00;10.13;;;7.63;;
7613;SDS011;3848;42.016;23.098;2022-07-29T13:31:28;14.15;;;8.40;;
7613;SDS011;3848;42.016;23.098;2022-07-29T13:33:55;9.15;;;7.18;;
7613;SDS011;3848;42.016;23.098;2022-07-29T13:36:22;8.88;;;7.13;;
7613;SDS011;3848;42.016;23.098;2022-07-29T13:38:49;8.88;;;8.05;;
7613;SDS011;3848;42.016;23.098;2022-07-29T13:41:16;8.57;;;7.20;;
7613;SDS011;3848;42.016;23.098;2022-07-29T13:43:43;7.78;;;7.18;;
7613;SDS011;3848;42.016;23.098;2022-07-29T13:46:11;10.70;;;7.88;;
7613;SDS011;3848;42.016;23.098;2022-07-29T13:48:39;12.68;;;8.10;;
7613;SDS011;3848;42.016;23.098;2022-07-29T13:51:06;11.15;;;7.90;;
7613;SDS011;3848;42.016;23.098;2022-07-29T13:53:33;11.80;;;8.02;;
7613;SDS011;3848;42.016;23.098;2022-07-29T13:56:00;10.68;;;8.00;;
7613;SDS011;3848;42.016;23.098;2022-07-29T13:58:27;16.35;;;12.10;;
7613;SDS011;3848;42.016;23.098;2022-07-29T14:00:55;10.50;;;8.85;;
7613;SDS011;3848;42.016;23.098;2022-07-29T14:03:22;10.15;;;7.75;;
7613;SDS011;3848;42.016;23.098;2022-07-29T14:05:50;8.73;;;7.93;;
7613;SDS011;3848;42.016;23.098;2022-07-29T14:08:17;9.90;;;8.10;;
7613;SDS011;3848;42.016;23.098;2022-07-29T14:10:44;9.07;;;7.88;;
7613;SDS011;3848;42.016;23.098;2022-07-29T14:13:11;8.75;;;7.85;;
7613;SDS011;3848;42.016;23.098;2022-07-29T14:15:38;9.50;;;7.47;;
7613;SDS011;3848;42.016;23.098;2022-07-29T14:18:05;8.77;;;7.80;;
7613;SDS011;3848;42.016;23.098;2022-07-29T14:20:32;13.85;;;7.72;;
7613;SDS011;3848;42.016;23.098;2022-07-29T14:23:00;9.60;;;7.30;;
7613;SDS011;3848;42.016;23.098;2022-07-29T14:25:27;9.70;;;8.07;;
7613;SDS011;3848;42.016;23.098;2022-07-29T14:27:54;8.73;;;7.93;;
7613;SDS011;3848;42.016;23.098;2022-07-29T14:30:21;7.38;;;6.72;;
7613;SDS011;3848;42.016;23.098;2022-07-29T14:32:48;8.00;;;7.20;;
7613;SDS011;3848;42.016;23.098;2022-07-29T14:35:14;9.70;;;6.97;;
7613;SDS011;3848;42.016;23.098;2022-07-29T14:37:41;9.50;;;7.70;;
7613;SDS011;3848;42.016;23.098;2022-07-29T14:40:10;8.68;;;7.38;;
7613;SDS011;3848;42.016;23.098;2022-07-29T14:42:37;6.90;;;6.30;;
7613;SDS011;3848;42.016;23.098;2022-07-29T14:45:05;8.27;;;7.35;;
7613;SDS011;3848;42.016;23.098;2022-07-29T14:47:33;7.20;;;6.60;;
7613;SDS011;3848;42.016;23.098;2022-07-29T14:50:00;9.20;;;6.88;;
7613;SDS011;3848;42.016;23.098;2022-07-29T14:52:27;7.88;;;7.07;;
7613;SDS011;3848;42.016;23.098;2022-07-29T14:54:54;8.98;;;7.47;;
7613;SDS011;3848;42.016;23.098;2022-07-29T14:57:22;8.40;;;7.60;;
7613;SDS011;3848;42.016;23.098;2022-07-29T14:59:49;8.40;;;7.57;;
7613;SDS011;3848;42.016;23.098;2022-07-29T15:02:16;7.63;;;6.45;;
7613;SDS011;3848;42.016;23.098;2022-07-29T15:04:42;7.63;;;6.60;;
7613;SDS011;3848;42.016;23.098;2022-07-29T15:07:11;7.38;;;6.68;;
7613;SDS011;3848;42.016;23.098;2022-07-29T15:09:38;7.22;;;6.50;;